Shinrock, Ohio
Current Conditions -  °F | °C
As of 1:13 PM on Monday 26 Jan 2015 (Local Time) from KPCW Reporting Station
Scattered Clouds Scattered Clouds  
Wind Chill:   Ceiling: Unl
Heat Index: 18°   Visibility: 10mi
Dew Point: 10°   Wind: 9mph
Humidity: 73%   Direction: 360°N
Pressure: 29.89"   Gusts: NA
Location:  41.3748°N, 82.5554°W
Report Text: KPCW 261813Z AUTO 36008KT 10SM SCT016 M08/M12 A2989 RMK AO2 $
Loading
Personal Weather Stations






























Interactive Weather Map New forecast layout! Learn more

10-Day Weather Forecast

Advertisements
Track Severe Weather on mobile